Sevenpersons, Canada
Current Conditions -  °F | °C
As of 11:08 AM on Sunday 25 Jan 2015 (Local Time) from CYXH Reporting Station
Scattered Clouds Scattered Clouds  
Wind Chill: 10°   Ceiling: Unl
Heat Index: 10°   Visibility: 30mi
Dew Point:   Wind: 14mph
Humidity: 66%   Direction: 230°SW
Pressure: 29.81"   Gusts: NA
Location:  49.87°N, 110.9°W
Report Text: CYXH 251808Z 23012KT 30SM FEW110 SCT280 10/04 A2981 RMK AC1CI2 WSHFT 1752 SLP112 DENSITY ALT 2400FT
Loading
Personal Weather Stations






























Interactive Weather Map New forecast layout! Learn more

10-Day Weather Forecast

Advertisements
Track Severe Weather on mobile